Eau Claire, South Carolina
Current Conditions -  °F | °C
As of 11:53 AM on Tuesday 27 Jan 2015 (Local Time) from KCUB Reporting Station
Overcast Overcast  
Wind Chill: 37°   Ceiling: 7500
Heat Index: 42°   Visibility: 10mi
Dew Point: 21°   Wind: 8mph
Humidity: 43%   Direction: 320°NW
Pressure: 29.91"   Gusts: NA
Location:  34.1179°N, 81.0612°W
Report Text: KCUB 271653Z AUTO 32007KT 10SM OVC075 06/M06 A2991 RMK AO2 SLP127 T00561061
Loading
Personal Weather Stations






























Interactive Weather Map New forecast layout! Learn more

10-Day Weather Forecast

Advertisements
Track Severe Weather on mobile